Data for 01/10/2010

Time Sea-Level Adjusted Pressure Absolute Pressure Temperature Relative Humidity Dew Point   
(mb) (inHg) (mb) (inHg) (C) (F) (%) (C) (F)
00:05 1025 30.27 854 25.22 -3.1 26.5 78 -6.4 20.5
00:10 1025 30.27 854 25.22 -2.9 26.8 72 -7.2 19
00:15 1025 30.27 854 25.22 -3.3 26 73 -7.5 18.5
00:20 1025 30.27 854 25.22 -3.5 25.8 70 -8.1 17.4
00:25 1025 30.27 854 25.22 -3.3 26 70 -8.1 17.4
00:30 1025 30.27 854 25.22 -3.5 25.8 70 -8.1 17.4
00:35 1025 30.27 854 25.22 -3.4 25.8 70 -8.2 17.3
00:40 1024 30.24 854 25.22 -3.4 25.9 72 -7.7 18.2
00:45 1025 30.27 854 25.22 -3.6 25.5 70 -8.3 17
00:50 1024 30.24 854 25.22 -3.4 25.9 68 -8.6 16.6
00:55 1024 30.24 854 25.22 -3.3 26.1 72 -7.6 18.4
01:00 1024 30.24 854 25.22 -4 24.9 79 -7 19.4
01:05 1024 30.24 854 25.22 -4.1 24.6 79 -7.2 19.1
01:10 1025 30.27 854 25.22 -4.3 24.2 78 -7.6 18.3
01:15 1025 30.27 854 25.22 -5.3 22.5 82 -7.8 17.9
01:20 1024 30.24 854 25.22 -4.3 24.3 77 -7.8 17.9
01:25 1024 30.24 854 25.22 -4 24.9 78 -7.2 19
01:30 1025 30.27 854 25.22 -3.4 25.8 76 -7 19.3
01:35 1025 30.27 854 25.22 -4 24.7 79 -7.2 19
01:40 1025 30.27 854 25.22 -4.4 24.1 79 -7.5 18.6
01:45 1025 30.27 854 25.22 -4.2 24.4 81 -7.1 19.3
01:50 1025 30.27 854 25.22 -3.4 25.8 78 -6.7 20
01:55 1025 30.27 854 25.22 -3 26.5 78 -6.4 20.5
02:00 1025 30.27 854 25.22 -3.5 25.7 79 -6.7 20
02:05 1025 30.27 854 25.22 -3.7 25.3 72 -8.1 17.5
02:10 1025 30.27 854 25.22 -3.8 25.1 75 -7.5 18.4
02:15 1025 30.27 854 25.22 -4.1 24.7 75 -7.9 17.8
02:20 1025 30.27 855 25.25 -4.4 24 76 -8.1 17.5
02:25 1025 30.27 855 25.25 -5 23 78 -8.3 17
02:30 1026 30.3 855 25.25 -5.2 22.6 79 -8.4 17
02:35 1026 30.3 855 25.25 -4.9 23.1 77 -8.3 17.1
02:40 1026 30.3 855 25.25 -4.6 23.7 77 -8.1 17.4
02:45 1026 30.3 855 25.25 -4.1 24.7 74 -8 17.6
02:50 1026 30.3 855 25.25 -3.4 25.8 72 -7.8 17.9
02:55 1026 30.3 855 25.25 -3.5 25.7 72 -7.9 17.8
03:00 1026 30.3 855 25.25 -3.5 25.7 71 -8 17.6
03:05 1026 30.3 855 25.25 -3.4 25.9 67 -8.6 16.5
03:10 1026 30.3 855 25.25 -3.8 25.1 70 -8.6 16.5
03:15 1026 30.3 855 25.25 -4.2 24.4 71 -8.7 16.3
03:20 1026 30.3 855 25.25 -4.2 24.5 72 -8.5 16.8
03:25 1026 30.3 855 25.25 -4.2 24.5 73 -8.3 17.1
03:30 1026 30.3 855 25.25 -4.5 23.9 75 -8.3 17.1
03:35 1026 30.3 855 25.25 -4.7 23.6 77 -8.1 17.5
03:40 1026 30.3 855 25.25 -4.7 23.5 78 -8 17.6
03:45 1026 30.3 855 25.25 -4.6 23.8 78 -7.8 18
03:50 1026 30.3 855 25.25 -4.4 24.2 79 -7.5 18.5
03:55 1026 30.3 855 25.25 -4.5 23.8 75 -8.4 16.9
04:00 1026 30.3 855 25.25 -3.5 25.8 70 -8.1 17.4
04:05 1026 30.3 855 25.25 -3.8 25.2 74 -7.7 18.2
04:10 1026 30.3 855 25.25 -4.3 24.3 74 -8.1 17.3
04:15 1026 30.3 855 25.25 -3 26.7 67 -8.3 17.1
04:20 1026 30.3 855 25.25 -3.1 26.5 71 -7.6 18.4
04:25 1026 30.3 855 25.25 -2.7 27.1 71 -7.3 18.8
04:30 1026 30.3 855 25.25 -3.1 26.5 73 -7.3 18.9
04:35 1026 30.3 855 25.25 -3.6 25.6 78 -6.8 19.8
04:40 1026 30.3 855 25.25 -3.4 25.9 78 -6.7 20
04:45 1026 30.3 855 25.25 -3.4 25.9 74 -7.4 18.6
04:50 1026 30.3 855 25.25 -4 24.9 77 -7.5 18.5
04:55 1026 30.3 855 25.25 -4.5 23.9 79 -7.6 18.3
05:00 1026 30.3 855 25.25 -4.4 24.1 78 -7.6 18.3
05:05 1026 30.3 855 25.25 -4.5 23.8 80 -7.4 18.6
05:10 1026 30.3 855 25.25 -4.7 23.5 81 -7.5 18.5
05:15 1026 30.3 855 25.25 -4.9 23.2 81 -7.6 18.3
05:20 1026 30.3 855 25.25 -4.5 24 81 -7.2 19
05:25 1026 30.3 855 25.25 -3.8 25.1 78 -7.1 19.1
05:30 1026 30.3 855 25.25 -4.1 24.7 79 -7.2 19.1
05:35 1026 30.3 855 25.25 -4.8 23.4 81 -7.6 18.3
05:40 1026 30.3 855 25.25 -4.8 23.4 80 -7.8 18
05:45 1026 30.3 855 25.25 -4.3 24.3 79 -7.4 18.6
05:50 1026 30.3 855 25.25 -4.2 24.5 79 -7.2 19
05:55 1026 30.3 855 25.25 -3.9 24.9 79 -7.1 19.2
06:00 1026 30.3 855 25.25 -3.8 25.1 78 -7.2 19.1
06:05 1026 30.3 855 25.25 -3.9 25 79 -7 19.5
06:10 1026 30.3 855 25.25 -3.6 25.6 76 -7.3 18.9
06:15 1026 30.3 855 25.25 -4.2 24.4 79 -7.3 18.8
06:20 1026 30.3 855 25.25 -4.3 24.3 79 -7.4 18.6
06:25 1026 30.3 855 25.25 -4.4 24.1 83 -6.9 19.6
06:30 1026 30.3 855 25.25 -3.3 26 78 -6.7 19.9
06:35 1026 30.3 855 25.25 -2.7 27.2 75 -6.6 20.2
06:40 1026 30.3 855 25.25 -3.7 25.4 78 -6.9 19.5
06:45 1026 30.3 855 25.25 -4.5 23.8 81 -7.4 18.7
06:50 1026 30.3 855 25.25 -4.9 23.2 81 -7.6 18.4
06:55 1026 30.3 855 25.25 -5.2 22.6 83 -7.8 18
07:00 1026 30.3 855 25.25 -5.4 22.3 84 -7.7 18.1
07:05 1026 30.3 855 25.25 -5.1 22.9 83 -7.6 18.4
07:10 1026 30.3 855 25.25 -4.6 23.7 80 -7.5 18.4
07:15 1026 30.3 855 25.25 -4.3 24.2 81 -7.2 19.1
07:20 1026 30.3 855 25.25 -4 24.7 79 -7.1 19.3
07:25 1026 30.3 855 25.25 -4.2 24.5 81 -7 19.4
07:30 1026 30.3 855 25.25 -4 24.9 80 -7 19.4
07:35 1026 30.3 855 25.25 -4 24.8 80 -6.9 19.6
07:40 1026 30.3 855 25.25 -3.9 25 80 -6.9 19.7
07:45 1026 30.3 855 25.25 -4 24.9 82 -6.6 20.1
07:50 1026 30.3 855 25.25 -4.3 24.3 83 -6.7 19.9
07:55 1026 30.3 855 25.25 -4.8 23.4 84 -7.1 19.2
08:00 1026 30.3 855 25.25 -4.7 23.6 83 -7.2 19.1
08:05 1026 30.3 855 25.25 -4.2 24.5 81 -7 19.4
08:10 1026 30.3 855 25.25 -4 24.8 80 -6.9 19.5
08:15 1026 30.3 856 25.28 -4.1 24.5 80 -7 19.4
08:20 1026 30.3 856 25.28 -4.4 24.1 82 -7.1 19.3
08:25 1026 30.3 856 25.28 -4.6 23.7 80 -7.6 18.4
08:30 1026 30.3 856 25.28 -4.3 24.3 79 -7.4 18.7
08:35 1026 30.3 856 25.28 -4 24.8 78 -7.3 18.8
08:40 1026 30.3 856 25.28 -4 24.7 79 -7.2 19
08:45 1027 30.33 856 25.28 -4.4 24.1 79 -7.5 18.5
08:50 1027 30.33 856 25.28 -4.6 23.7 81 -7.4 18.7
08:55 1027 30.33 856 25.28 -4.4 24 79 -7.5 18.5
09:00 1027 30.33 856 25.28 -4.1 24.6 81 -6.8 19.7
09:05 1027 30.33 856 25.28 -3.6 25.5 78 -6.9 19.5
09:10 1027 30.33 856 25.28 -3.1 26.4 77 -6.6 20.2
09:15 1027 30.33 856 25.28 -2.9 26.9 74 -6.8 19.7
09:20 1027 30.33 856 25.28 -3.1 26.3 73 -7.3 18.9
09:25 1027 30.33 856 25.28 -3 26.6 72 -7.4 18.8
09:30 1026 30.3 856 25.28 -3.2 26.3 72 -7.5 18.6
09:35 1026 30.3 856 25.28 -3 26.5 72 -7.5 18.6
09:40 1027 30.33 856 25.28 -3.1 26.4 72 -7.4 18.6
09:45 1027 30.33 856 25.28 -3.3 26.1 72 -7.6 18.4
09:50 1027 30.33 856 25.28 -2.7 27.2 69 -7.6 18.3
09:55 1027 30.33 856 25.28 -2.6 27.4 70 -7.3 18.9
10:00 1027 30.33 856 25.28 -2.7 27.2 70 -7.4 18.6
10:05 1027 30.33 856 25.28 -2.4 27.7 69 -7.3 18.9
10:10 1027 30.33 856 25.28 -1.4 29.5 65 -7.2 19
10:15 1027 30.33 856 25.28 -0.4 31.2 61 -7.1 19.2
10:20 1027 30.33 856 25.28 -0.2 31.7 62 -6.6 20.1
10:25 1027 30.33 856 25.28 -0.6 30.9 63 -6.8 19.7
10:30 1027 30.33 856 25.28 -0.6 30.8 65 -6.5 20.3
10:35 1027 30.33 856 25.28 -0.2 31.7 61 -6.8 19.8
10:40 1027 30.33 856 25.28 0.7 33.3 58 -6.6 20.1
10:45 1027 30.33 856 25.28 0.7 33.3 57 -6.8 19.8
10:50 1027 30.33 856 25.28 0.4 32.8 59 -6.7 20
10:55 1027 30.33 856 25.28 0.7 33.2 56 -7 19.4
11:00 1027 30.33 856 25.28 1.1 33.9 55 -6.9 19.5
11:05 1027 30.33 856 25.28 1.2 34.2 57 -6.5 20.4
11:10 1027 30.33 856 25.28 0.7 33.3 57 -6.8 19.8
11:15 1026 30.3 856 25.28 0.8 33.5 56 -6.9 19.6
11:20 1026 30.3 856 25.28 0.8 33.4 57 -6.8 19.8
11:25 1026 30.3 856 25.28 0.8 33.5 57 -6.8 19.8
11:30 1026 30.3 856 25.28 1.3 34.4 55 -6.8 19.7
11:35 1026 30.3 856 25.28 2.1 35.8 54 -6.3 20.6
11:40 1026 30.3 856 25.28 1.8 35.3 55 -6.4 20.6
11:45 1026 30.3 856 25.28 2 35.7 51 -7 19.3
11:50 1026 30.3 856 25.28 2.7 36.9 49 -6.8 19.7
11:55 1026 30.3 855 25.25 2.8 37.1 50 -6.7 19.9
12:00 1026 30.3 855 25.25 2.3 36.1 54 -6.2 20.9
12:05 1026 30.3 855 25.25 2 35.6 55 -6.1 21
12:10 1026 30.3 855 25.25 2 35.5 53 -6.6 20
12:15 1026 30.3 855 25.25 2.3 36.2 51 -6.7 20
12:20 1026 30.3 855 25.25 2.8 37 52 -6.2 20.8
12:25 1026 30.3 855 25.25 2.3 36.1 54 -6.2 20.9
12:30 1026 30.3 855 25.25 2.1 35.8 55 -6.1 21.1
12:35 1026 30.3 855 25.25 2.3 36.1 52 -6.6 20.2
12:40 1026 30.3 855 25.25 2.8 37.1 50 -6.7 20
12:45 1026 30.3 855 25.25 3.5 38.2 50 -6.1 21
12:50 1026 30.3 855 25.25 3.1 37.6 50 -6.3 20.6
12:55 1026 30.3 855 25.25 3.1 37.6 51 -6.2 20.9
13:00 1026 30.3 855 25.25 3.1 37.6 50 -6.3 20.7
13:05 1026 30.3 855 25.25 2.9 37.2 51 -6.3 20.6
13:10 1026 30.3 855 25.25 2.5 36.6 53 -6.1 21.1
13:15 1026 30.3 855 25.25 2.2 35.9 53 -6.4 20.5
13:20 1026 30.3 855 25.25 2.5 36.5 51 -6.6 20.1
13:25 1026 30.3 855 25.25 2.8 37 50 -6.5 20.3
13:30 1026 30.3 855 25.25 2.4 36.3 53 -6.3 20.7
13:35 1026 30.3 855 25.25 2.3 36.1 54 -6.2 20.9
13:40 1025 30.27 855 25.25 2.4 36.4 51 -6.6 20
13:45 1026 30.3 855 25.25 3.1 37.7 48 -6.7 19.9
13:50 1026 30.3 855 25.25 3.3 38 48 -6.5 20.2
13:55 1026 30.3 855 25.25 3.1 37.7 50 -6.4 20.5
14:00 1025 30.27 855 25.25 3 37.3 49 -6.6 20.1
14:05 1025 30.27 855 25.25 2.6 36.7 51 -6.5 20.4
14:10 1025 30.27 855 25.25 2.8 37 51 -6.4 20.5
14:15 1025 30.27 855 25.25 3.1 37.6 49 -6.6 20.2
14:20 1025 30.27 855 25.25 3.1 37.6 50 -6.3 20.7
14:25 1025 30.27 855 25.25 3.2 37.7 51 -6 21.2
14:30 1026 30.3 855 25.25 2.7 36.9 52 -6.2 20.8
14:35 1026 30.3 855 25.25 2.5 36.5 51 -6.5 20.2
14:40 1025 30.27 855 25.25 2.4 36.3 53 -6.3 20.6
14:45 1025 30.27 855 25.25 1.5 34.7 54 -6.8 19.8
14:50 1025 30.27 855 25.25 1.5 34.7 53 -7 19.4
14:55 1025 30.27 855 25.25 1.9 35.4 54 -6.6 20.2
15:00 1025 30.27 855 25.25 2.2 35.9 52 -6.7 20
15:05 1025 30.27 855 25.25 2.6 36.6 51 -6.5 20.4
15:10 1025 30.27 855 25.25 2.8 37 50 -6.5 20.2
15:15 1025 30.27 855 25.25 2.8 37 51 -6.5 20.3
15:20 1025 30.27 855 25.25 2.9 37.3 49 -6.6 20.1
15:25 1025 30.27 855 25.25 2.8 37 50 -6.7 19.9
15:30 1026 30.3 855 25.25 2.9 37.3 51 -6.3 20.7
15:35 1026 30.3 855 25.25 2.5 36.4 51 -6.8 19.8
15:40 1026 30.3 855 25.25 2.6 36.7 52 -6.4 20.5
15:45 1026 30.3 855 25.25 2.3 36.2 53 -6.3 20.6
15:50 1026 30.3 855 25.25 2.1 35.8 53 -6.4 20.5
15:55 1026 30.3 855 25.25 2 35.6 55 -6.1 21
16:00 1026 30.3 855 25.25 2.1 35.8 53 -6.6 20.2
16:05 1026 30.3 855 25.25 2.1 35.9 52 -6.6 20.1
16:10 1026 30.3 855 25.25 2 35.6 53 -6.6 20.1
16:15 1026 30.3 855 25.25 2 35.6 54 -6.4 20.4
16:20 1026 30.3 855 25.25 1.8 35.2 55 -6.4 20.5
16:25 1026 30.3 855 25.25 1.7 35 54 -6.7 19.9
16:30 1026 30.3 855 25.25 1.5 34.7 55 -6.6 20.1
16:35 1026 30.3 855 25.25 1.4 34.5 54 -6.9 19.6
16:40 1026 30.3 855 25.25 1 33.8 56 -6.8 19.8
16:45 1026 30.3 855 25.25 0.5 32.8 58 -6.8 19.8
16:50 1026 30.3 855 25.25 -0.4 31.3 62 -6.9 19.6
16:55 1026 30.3 855 25.25 -0.9 30.4 62 -7.3 18.9
17:00 1026 30.3 855 25.25 -0.7 30.7 62 -7 19.4
17:05 1026 30.3 855 25.25 -0.8 30.5 63 -6.9 19.5
17:10 1026 30.3 855 25.25 -1.2 29.9 65 -6.8 19.7
17:15 1026 30.3 855 25.25 -1.4 29.4 67 -6.8 19.8
17:20 1026 30.3 855 25.25 -1.7 29 69 -6.6 20
17:25 1026 30.3 855 25.25 -1.8 28.7 68 -7 19.4
17:30 1026 30.3 855 25.25 -1.9 28.5 70 -6.7 19.9
17:35 1026 30.3 855 25.25 -2.4 27.7 72 -6.8 19.7
17:40 1026 30.3 855 25.25 -2.7 27.2 73 -6.9 19.6
17:45 1026 30.3 855 25.25 -2.8 26.9 73 -6.9 19.5
17:50 1026 30.3 855 25.25 -2.7 27.2 73 -6.9 19.5
17:55 1026 30.3 855 25.25 -2.6 27.4 72 -6.9 19.5
18:00 1026 30.3 855 25.25 -2.4 27.7 71 -7 19.4
18:05 1026 30.3 855 25.25 -2.1 28.3 68 -7.2 19
18:10 1026 30.3 855 25.25 -2.2 28 70 -6.9 19.6
18:15 1026 30.3 855 25.25 -2.8 27 71 -7.4 18.7
18:20 1026 30.3 855 25.25 -3.1 26.4 74 -7.1 19.3
18:25 1026 30.3 855 25.25 -3.3 26.1 72 -7.6 18.3
18:30 1026 30.3 855 25.25 -3.8 25.2 79 -7 19.5
18:35 1026 30.3 855 25.25 -3.8 25.1 80 -6.8 19.7
18:40 1026 30.3 855 25.25 -3.7 25.3 82 -6.4 20.5
18:45 1026 30.3 855 25.25 -3.4 25.8 82 -6 21.2
18:50 1026 30.3 855 25.25 -2.9 26.9 80 -5.8 21.5
18:55 1026 30.3 855 25.25 -2.5 27.5 80 -5.6 22
19:00 1026 30.3 855 25.25 -2.4 27.6 77 -6 21.2
19:05 1026 30.3 855 25.25 -3.1 26.3 76 -6.8 19.7
19:10 1026 30.3 855 25.25 -3.2 26.2 76 -6.8 19.7
19:15 1026 30.3 855 25.25 -2.9 26.7 77 -6.5 20.4
19:20 1026 30.3 855 25.25 -3.2 26.3 78 -6.4 20.5
19:25 1026 30.3 855 25.25 -3.5 25.7 80 -6.5 20.3
19:30 1026 30.3 855 25.25 -3.6 25.6 81 -6.3 20.6
19:35 1026 30.3 855 25.25 -3.3 26.1 80 -6.3 20.6
19:40 1026 30.3 855 25.25 -3.5 25.7 81 -6.3 20.7
19:45 1026 30.3 855 25.25 -3.6 25.6 81 -6.4 20.5
19:50 1026 30.3 855 25.25 -3.7 25.4 82 -6.4 20.5
19:55 1026 30.3 855 25.25 -3.9 25 82 -6.5 20.4
20:00 1026 30.3 855 25.25 -3.9 25 84 -6.3 20.7
20:05 1026 30.3 855 25.25 -3.9 24.9 84 -6.2 20.8
20:10 1026 30.3 855 25.25 -3.7 25.3 84 -6.1 21
20:15 1026 30.3 855 25.25 -3.4 25.9 83 -5.8 21.6
20:20 1026 30.3 855 25.25 -3.5 25.8 84 -5.8 21.5
20:25 1026 30.3 855 25.25 -3.6 25.6 84 -5.9 21.3
20:30 1026 30.3 855 25.25 -3.7 25.4 84 -6 21.2
20:35 1026 30.3 855 25.25 -3.8 25.2 83 -6.2 20.9
20:40 1026 30.3 855 25.25 -3.8 25.1 84 -6.1 21.1
20:45 1026 30.3 855 25.25 -3.5 25.8 83 -5.9 21.3
20:50 1026 30.3 855 25.25 -3 26.6 81 -5.9 21.4
20:55 1026 30.3 855 25.25 -2.8 27 78 -6 21.2
21:00 1026 30.3 855 25.25 -2.4 27.6 79 -5.6 21.9
21:05 1026 30.3 855 25.25 -1.9 28.6 76 -5.5 22.1
21:10 1026 30.3 855 25.25 -1.7 29 75 -5.5 22.1
21:15 1026 30.3 855 25.25 -2.2 28.1 76 -5.9 21.4
21:20 1026 30.3 855 25.25 -3.4 25.8 77 -6.9 19.7
21:25 1026 30.3 855 25.25 -4.4 24.1 86 -6.4 20.4
21:30 1026 30.3 855 25.25 -3.2 26.3 81 -6 21.2
21:35 1026 30.3 855 25.25 -3.1 26.4 80 -6.1 21
21:40 1026 30.3 855 25.25 -3.8 25.1 83 -6.4 20.6
21:45 1026 30.3 856 25.28 -3.9 24.9 83 -6.4 20.5
21:50 1026 30.3 856 25.28 -3.7 25.3 82 -6.3 20.6
21:55 1027 30.33 856 25.28 -3.8 25.1 82 -6.5 20.4
22:00 1026 30.3 856 25.28 -3.8 25.1 83 -6.3 20.6
22:05 1026 30.3 856 25.28 -3.9 25 83 -6.4 20.5
22:10 1026 30.3 856 25.28 -4.1 24.6 82 -6.7 20
22:15 1026 30.3 856 25.28 -4.4 24 84 -6.8 19.8
22:20 1026 30.3 856 25.28 -3.9 24.9 83 -6.4 20.5
22:25 1026 30.3 856 25.28 -3.3 26.1 80 -6.3 20.7
22:30 1026 30.3 856 25.28 -3.2 26.2 80 -6.2 20.9
22:35 1027 30.33 856 25.28 -2.8 27 78 -6.1 21
22:40 1026 30.3 856 25.28 -3.7 25.3 81 -6.5 20.2
22:45 1026 30.3 855 25.25 -4.3 24.2 82 -7 19.4
22:50 1026 30.3 855 25.25 -4.5 24 83 -6.9 19.5
22:55 1026 30.3 855 25.25 -4.6 23.7 84 -6.9 19.6
23:00 1026 30.3 855 25.25 -4.7 23.6 84 -6.9 19.6
23:05 1026 30.3 855 25.25 -3.8 25.2 81 -6.5 20.2
23:10 1026 30.3 855 25.25 -3.2 26.3 80 -6.1 21
23:15 1026 30.3 855 25.25 -3.2 26.3 81 -6 21.2
23:20 1026 30.3 855 25.25 -2.8 27 79 -5.9 21.5
23:25 1026 30.3 855 25.25 -2.5 27.4 78 -5.8 21.6
23:30 1026 30.3 855 25.25 -2.4 27.8 76 -6 21.1
23:35 1026 30.3 855 25.25 -2.6 27.3 77 -6 21.1
23:40 1025 30.27 855 25.25 -2.8 26.9 78 -6.1 20.9
23:45 1025 30.27 855 25.25 -3.1 26.4 80 -6.1 21
23:50 1025 30.27 855 25.25 -3.2 26.3 80 -6.1 21
23:55 1025 30.27 855 25.25 -3 26.6 79 -6.1 21.1
24:00 1026 30.3 855 25.25 -2.7 27.1 78 -6.1 21